sensor_id;sensor_type;location;lat;lon;timestamp;pressure;altitude;pressure_sealevel;temperature;humidity
73518;BME280;61766;60.318;25.044;2023-05-17T00:02:00;100516.79;;;13.29;59.17
73518;BME280;61766;60.318;25.044;2023-05-17T00:04:25;100516.22;;;13.87;57.92
73518;BME280;61766;60.318;25.044;2023-05-17T00:06:51;100521.49;;;13.35;58.70
73518;BME280;61766;60.318;25.044;2023-05-17T00:09:16;100519.75;;;14.17;57.11
73518;BME280;61766;60.318;25.044;2023-05-17T00:11:42;100521.23;;;14.80;54.30
73518;BME280;61766;60.318;25.044;2023-05-17T00:14:07;100518.13;;;15.23;53.43
73518;BME280;61766;60.318;25.044;2023-05-17T00:16:32;100517.51;;;15.24;53.12
73518;BME280;61766;60.318;25.044;2023-05-17T00:18:58;100519.54;;;14.67;54.51
73518;BME280;61766;60.318;25.044;2023-05-17T00:21:24;100520.62;;;14.74;54.00
73518;BME280;61766;60.318;25.044;2023-05-17T00:23:49;100518.66;;;15.01;53.87
73518;BME280;61766;60.318;25.044;2023-05-17T00:26:15;100524.57;;;13.34;57.60
73518;BME280;61766;60.318;25.044;2023-05-17T00:28:40;100529.74;;;14.37;55.83
73518;BME280;61766;60.318;25.044;2023-05-17T00:31:05;100529.96;;;13.67;58.11
73518;BME280;61766;60.318;25.044;2023-05-17T00:33:30;100534.29;;;13.79;57.70
73518;BME280;61766;60.318;25.044;2023-05-17T00:35:56;100547.71;;;13.47;59.85
73518;BME280;61766;60.318;25.044;2023-05-17T00:38:21;100550.36;;;13.26;61.46
73518;BME280;61766;60.318;25.044;2023-05-17T00:40:48;100557.54;;;12.74;62.51
73518;BME280;61766;60.318;25.044;2023-05-17T00:43:12;100561.08;;;12.58;62.31
73518;BME280;61766;60.318;25.044;2023-05-17T00:45:38;100566.29;;;11.50;64.20
73518;BME280;61766;60.318;25.044;2023-05-17T00:48:04;100560.28;;;13.14;60.38
73518;BME280;61766;60.318;25.044;2023-05-17T00:50:29;100569.04;;;12.14;63.75
73518;BME280;61766;60.318;25.044;2023-05-17T00:52:55;100571.90;;;11.20;65.70
73518;BME280;61766;60.318;25.044;2023-05-17T00:55:20;100566.54;;;11.44;65.97
73518;BME280;61766;60.318;25.044;2023-05-17T00:57:46;100571.03;;;12.36;63.27
73518;BME280;61766;60.318;25.044;2023-05-17T01:00:12;100577.34;;;12.07;65.05
73518;BME280;61766;60.318;25.044;2023-05-17T01:02:37;100583.85;;;11.70;64.27
73518;BME280;61766;60.318;25.044;2023-05-17T01:05:03;100579.63;;;12.21;62.87
73518;BME280;61766;60.318;25.044;2023-05-17T01:07:27;100579.95;;;12.11;63.24
73518;BME280;61766;60.318;25.044;2023-05-17T01:09:53;100584.71;;;12.35;62.02
73518;BME280;61766;60.318;25.044;2023-05-17T01:12:26;100582.04;;;11.81;64.47
73518;BME280;61766;60.318;25.044;2023-05-17T01:14:52;100581.44;;;12.22;62.42
73518;BME280;61766;60.318;25.044;2023-05-17T01:17:15;100579.62;;;11.25;65.21
73518;BME280;61766;60.318;25.044;2023-05-17T01:19:50;100580.06;;;12.61;61.55
73518;BME280;61766;60.318;25.044;2023-05-17T01:22:09;100586.83;;;11.66;63.19
73518;BME280;61766;60.318;25.044;2023-05-17T01:24:32;100580.94;;;10.94;64.30
73518;BME280;61766;60.318;25.044;2023-05-17T01:26:53;100579.56;;;12.52;61.70
73518;BME280;61766;60.318;25.044;2023-05-17T01:29:19;100577.17;;;12.25;60.95
73518;BME280;61766;60.318;25.044;2023-05-17T01:31:43;100578.67;;;12.93;58.85
73518;BME280;61766;60.318;25.044;2023-05-17T01:34:08;100583.30;;;12.76;60.00
73518;BME280;61766;60.318;25.044;2023-05-17T01:36:33;100581.85;;;11.98;61.09
73518;BME280;61766;60.318;25.044;2023-05-17T01:38:59;100577.94;;;12.34;60.09
73518;BME280;61766;60.318;25.044;2023-05-17T01:41:28;100573.70;;;13.13;58.09
73518;BME280;61766;60.318;25.044;2023-05-17T01:43:53;100577.16;;;12.62;58.67
73518;BME280;61766;60.318;25.044;2023-05-17T01:46:19;100581.53;;;11.87;61.05
73518;BME280;61766;60.318;25.044;2023-05-17T01:48:44;100579.44;;;13.06;57.65
73518;BME280;61766;60.318;25.044;2023-05-17T01:51:06;100592.87;;;12.68;58.46
73518;BME280;61766;60.318;25.044;2023-05-17T01:53:36;100587.78;;;12.69;58.95
73518;BME280;61766;60.318;25.044;2023-05-17T01:55:59;100587.86;;;12.53;58.45
73518;BME280;61766;60.318;25.044;2023-05-17T01:58:24;100589.94;;;12.28;58.50
73518;BME280;61766;60.318;25.044;2023-05-17T02:00:48;100583.89;;;12.51;57.82
73518;BME280;61766;60.318;25.044;2023-05-17T02:03:12;100579.67;;;13.56;54.90
73518;BME280;61766;60.318;25.044;2023-05-17T02:05:37;100581.00;;;13.35;55.24
73518;BME280;61766;60.318;25.044;2023-05-17T02:08:03;100578.66;;;13.25;55.93
73518;BME280;61766;60.318;25.044;2023-05-17T02:10:28;100588.86;;;12.12;57.80
73518;BME280;61766;60.318;25.044;2023-05-17T02:12:53;100587.86;;;12.68;56.40
73518;BME280;61766;60.318;25.044;2023-05-17T02:15:18;100592.66;;;12.88;56.16
73518;BME280;61766;60.318;25.044;2023-05-17T02:17:44;100590.43;;;12.98;55.01
73518;BME280;61766;60.318;25.044;2023-05-17T02:20:10;100587.94;;;12.31;56.01
73518;BME280;61766;60.318;25.044;2023-05-17T02:22:35;100581.15;;;12.45;55.74
73518;BME280;61766;60.318;25.044;2023-05-17T02:25:01;100579.28;;;13.35;53.83
73518;BME280;61766;60.318;25.044;2023-05-17T02:27:26;100581.42;;;13.89;52.20
73518;BME280;61766;60.318;25.044;2023-05-17T02:29:52;100583.06;;;12.75;54.46
73518;BME280;61766;60.318;25.044;2023-05-17T02:32:17;100586.23;;;13.31;53.34
73518;BME280;61766;60.318;25.044;2023-05-17T02:34:42;100586.69;;;14.24;51.78
73518;BME280;61766;60.318;25.044;2023-05-17T02:37:08;100587.48;;;13.58;52.39
73518;BME280;61766;60.318;25.044;2023-05-17T02:39:34;100587.09;;;14.20;51.61
73518;BME280;61766;60.318;25.044;2023-05-17T02:41:59;100588.09;;;14.14;51.36
73518;BME280;61766;60.318;25.044;2023-05-17T02:44:25;100588.49;;;12.84;53.06
73518;BME280;61766;60.318;25.044;2023-05-17T02:46:50;100587.59;;;13.68;52.47
73518;BME280;61766;60.318;25.044;2023-05-17T02:49:15;100592.79;;;13.56;52.94
73518;BME280;61766;60.318;25.044;2023-05-17T02:51:41;100595.36;;;12.65;54.78
73518;BME280;61766;60.318;25.044;2023-05-17T02:54:07;100595.73;;;12.48;54.40
73518;BME280;61766;60.318;25.044;2023-05-17T02:56:33;100602.12;;;12.33;55.92
73518;BME280;61766;60.318;25.044;2023-05-17T02:58:58;100606.47;;;11.64;57.33
73518;BME280;61766;60.318;25.044;2023-05-17T03:01:23;100605.55;;;12.71;55.37
73518;BME280;61766;60.318;25.044;2023-05-17T03:03:48;100605.30;;;12.10;56.17
73518;BME280;61766;60.318;25.044;2023-05-17T03:06:13;100602.08;;;12.98;54.65
73518;BME280;61766;60.318;25.044;2023-05-17T03:08:39;100605.09;;;12.00;56.75
73518;BME280;61766;60.318;25.044;2023-05-17T03:11:04;100608.12;;;12.01;56.65
73518;BME280;61766;60.318;25.044;2023-05-17T03:13:30;100609.59;;;12.20;56.51
73518;BME280;61766;60.318;25.044;2023-05-17T03:15:56;100615.96;;;11.84;58.32
73518;BME280;61766;60.318;25.044;2023-05-17T03:18:20;100620.47;;;11.88;58.07
73518;BME280;61766;60.318;25.044;2023-05-17T03:20:45;100621.62;;;12.16;57.55
73518;BME280;61766;60.318;25.044;2023-05-17T03:23:12;100618.80;;;11.96;57.48
73518;BME280;61766;60.318;25.044;2023-05-17T03:25:37;100622.21;;;12.18;57.46
73518;BME280;61766;60.318;25.044;2023-05-17T03:28:02;100629.22;;;11.96;57.54
73518;BME280;61766;60.318;25.044;2023-05-17T03:30:27;100624.46;;;11.68;58.87
73518;BME280;61766;60.318;25.044;2023-05-17T03:32:53;100625.64;;;10.41;62.14
73518;BME280;61766;60.318;25.044;2023-05-17T03:35:18;100623.15;;;10.97;61.26
73518;BME280;61766;60.318;25.044;2023-05-17T03:37:43;100626.43;;;11.90;59.06
73518;BME280;61766;60.318;25.044;2023-05-17T03:40:10;100627.34;;;11.36;60.92
73518;BME280;61766;60.318;25.044;2023-05-17T03:42:34;100630.17;;;11.30;60.95
73518;BME280;61766;60.318;25.044;2023-05-17T03:45:00;100635.15;;;10.96;61.97
73518;BME280;61766;60.318;25.044;2023-05-17T03:47:25;100634.62;;;10.42;64.32
73518;BME280;61766;60.318;25.044;2023-05-17T03:49:50;100632.27;;;11.73;61.32
73518;BME280;61766;60.318;25.044;2023-05-17T03:52:15;100631.10;;;10.68;63.56
73518;BME280;61766;60.318;25.044;2023-05-17T03:54:41;100632.78;;;11.63;61.61
73518;BME280;61766;60.318;25.044;2023-05-17T03:57:06;100636.75;;;12.07;60.16
73518;BME280;61766;60.318;25.044;2023-05-17T03:59:32;100638.62;;;12.40;59.68
73518;BME280;61766;60.318;25.044;2023-05-17T04:01:57;100640.62;;;11.50;62.07
73518;BME280;61766;60.318;25.044;2023-05-17T04:04:23;100644.44;;;11.43;61.54
73518;BME280;61766;60.318;25.044;2023-05-17T04:06:48;100641.27;;;12.63;58.66
73518;BME280;61766;60.318;25.044;2023-05-17T04:09:14;100639.53;;;12.66;57.70
73518;BME280;61766;60.318;25.044;2023-05-17T04:11:39;100644.28;;;11.21;61.62
73518;BME280;61766;60.318;25.044;2023-05-17T04:14:04;100645.90;;;10.52;64.72
73518;BME280;61766;60.318;25.044;2023-05-17T04:16:29;100659.11;;;10.27;64.45
73518;BME280;61766;60.318;25.044;2023-05-17T04:18:55;100651.94;;;10.96;63.77
73518;BME280;61766;60.318;25.044;2023-05-17T04:21:20;100646.73;;;11.28;62.85
73518;BME280;61766;60.318;25.044;2023-05-17T04:23:46;100649.84;;;10.38;65.93
73518;BME280;61766;60.318;25.044;2023-05-17T04:26:12;100650.18;;;10.75;64.46
73518;BME280;61766;60.318;25.044;2023-05-17T04:28:37;100642.10;;;11.16;63.41
73518;BME280;61766;60.318;25.044;2023-05-17T04:31:06;100648.25;;;10.82;63.54
73518;BME280;61766;60.318;25.044;2023-05-17T04:33:28;100643.31;;;11.37;62.43
73518;BME280;61766;60.318;25.044;2023-05-17T04:35:54;100649.81;;;11.34;61.85
73518;BME280;61766;60.318;25.044;2023-05-17T04:38:19;100649.94;;;10.92;62.85
73518;BME280;61766;60.318;25.044;2023-05-17T04:40:45;100647.72;;;11.74;60.82
73518;BME280;61766;60.318;25.044;2023-05-17T04:43:10;100649.00;;;12.63;58.74
73518;BME280;61766;60.318;25.044;2023-05-17T04:45:35;100648.78;;;11.18;62.41
73518;BME280;61766;60.318;25.044;2023-05-17T04:48:00;100647.66;;;10.46;63.42
73518;BME280;61766;60.318;25.044;2023-05-17T04:50:26;100657.24;;;10.64;63.62
73518;BME280;61766;60.318;25.044;2023-05-17T04:52:51;100652.75;;;11.09;62.21
73518;BME280;61766;60.318;25.044;2023-05-17T04:55:16;100654.88;;;10.16;64.54
73518;BME280;61766;60.318;25.044;2023-05-17T04:57:42;100661.04;;;11.03;63.60
73518;BME280;61766;60.318;25.044;2023-05-17T05:00:08;100662.31;;;11.60;61.11
73518;BME280;61766;60.318;25.044;2023-05-17T05:02:32;100664.84;;;10.54;63.24
73518;BME280;61766;60.318;25.044;2023-05-17T05:04:58;100669.42;;;9.95;64.98
73518;BME280;61766;60.318;25.044;2023-05-17T05:07:24;100673.76;;;10.70;62.76
73518;BME280;61766;60.318;25.044;2023-05-17T05:09:49;100674.37;;;11.90;60.11
73518;BME280;61766;60.318;25.044;2023-05-17T05:12:15;100674.78;;;11.09;61.99
73518;BME280;61766;60.318;25.044;2023-05-17T05:14:41;100678.14;;;10.54;63.79
73518;BME280;61766;60.318;25.044;2023-05-17T05:17:07;100681.30;;;11.60;62.19
73518;BME280;61766;60.318;25.044;2023-05-17T05:19:32;100686.77;;;10.63;64.54
73518;BME280;61766;60.318;25.044;2023-05-17T05:21:57;100692.50;;;11.17;62.78
73518;BME280;61766;60.318;25.044;2023-05-17T05:24:23;100700.23;;;10.57;63.66
73518;BME280;61766;60.318;25.044;2023-05-17T05:26:48;100688.78;;;10.88;63.81
73518;BME280;61766;60.318;25.044;2023-05-17T05:29:14;100689.53;;;11.49;60.66
73518;BME280;61766;60.318;25.044;2023-05-17T05:31:39;100694.72;;;11.92;60.91
73518;BME280;61766;60.318;25.044;2023-05-17T05:34:04;100691.83;;;10.85;62.22
73518;BME280;61766;60.318;25.044;2023-05-17T05:36:29;100692.33;;;10.99;61.97
73518;BME280;61766;60.318;25.044;2023-05-17T05:38:54;100698.98;;;11.08;61.55
73518;BME280;61766;60.318;25.044;2023-05-17T05:41:20;100700.86;;;11.90;60.08
73518;BME280;61766;60.318;25.044;2023-05-17T05:43:46;100711.10;;;11.31;60.94
73518;BME280;61766;60.318;25.044;2023-05-17T05:46:11;100714.11;;;11.22;62.07
73518;BME280;61766;60.318;25.044;2023-05-17T05:48:37;100710.68;;;10.86;63.14
73518;BME280;61766;60.318;25.044;2023-05-17T05:51:02;100710.39;;;10.96;62.40
73518;BME280;61766;60.318;25.044;2023-05-17T05:53:28;100706.20;;;11.59;61.30
73518;BME280;61766;60.318;25.044;2023-05-17T05:55:54;100715.29;;;10.30;64.08
73518;BME280;61766;60.318;25.044;2023-05-17T05:58:19;100709.67;;;10.25;64.32
73518;BME280;61766;60.318;25.044;2023-05-17T06:00:44;100716.06;;;10.69;63.27
73518;BME280;61766;60.318;25.044;2023-05-17T06:03:09;100708.50;;;11.11;62.07
73518;BME280;61766;60.318;25.044;2023-05-17T06:05:35;100714.62;;;11.10;61.28
73518;BME280;61766;60.318;25.044;2023-05-17T06:08:01;100711.28;;;11.95;59.52
73518;BME280;61766;60.318;25.044;2023-05-17T06:10:27;100713.65;;;11.71;60.33
73518;BME280;61766;60.318;25.044;2023-05-17T06:12:52;100710.67;;;11.29;61.08
73518;BME280;61766;60.318;25.044;2023-05-17T06:15:18;100713.29;;;10.49;64.09
73518;BME280;61766;60.318;25.044;2023-05-17T06:17:43;100714.33;;;11.70;61.43
73518;BME280;61766;60.318;25.044;2023-05-17T06:20:09;100718.42;;;10.45;63.70
73518;BME280;61766;60.318;25.044;2023-05-17T06:22:35;100714.10;;;11.07;62.16
73518;BME280;61766;60.318;25.044;2023-05-17T06:25:00;100722.04;;;10.47;64.50
73518;BME280;61766;60.318;25.044;2023-05-17T06:27:25;100721.67;;;11.68;61.91
73518;BME280;61766;60.318;25.044;2023-05-17T06:29:51;100723.08;;;11.15;62.15
73518;BME280;61766;60.318;25.044;2023-05-17T06:32:16;100725.18;;;11.52;60.52
73518;BME280;61766;60.318;25.044;2023-05-17T06:34:41;100731.02;;;11.31;62.15
73518;BME280;61766;60.318;25.044;2023-05-17T06:37:07;100738.22;;;11.41;61.83
73518;BME280;61766;60.318;25.044;2023-05-17T06:39:33;100745.33;;;11.25;63.35
73518;BME280;61766;60.318;25.044;2023-05-17T06:41:58;100744.54;;;10.18;65.47
73518;BME280;61766;60.318;25.044;2023-05-17T06:44:24;100746.81;;;11.35;63.08
73518;BME280;61766;60.318;25.044;2023-05-17T06:46:49;100751.26;;;11.06;62.84
73518;BME280;61766;60.318;25.044;2023-05-17T06:49:14;100748.38;;;10.92;63.44
73518;BME280;61766;60.318;25.044;2023-05-17T06:51:39;100753.25;;;11.31;62.43
73518;BME280;61766;60.318;25.044;2023-05-17T06:54:05;100746.35;;;11.45;61.64
73518;BME280;61766;60.318;25.044;2023-05-17T06:56:30;100749.35;;;12.36;59.37
73518;BME280;61766;60.318;25.044;2023-05-17T06:58:55;100756.31;;;12.02;60.20
73518;BME280;61766;60.318;25.044;2023-05-17T07:01:20;100758.38;;;11.85;59.46
73518;BME280;61766;60.318;25.044;2023-05-17T07:03:46;100764.70;;;11.24;61.01
73518;BME280;61766;60.318;25.044;2023-05-17T07:06:11;100762.58;;;11.98;59.73
73518;BME280;61766;60.318;25.044;2023-05-17T07:08:37;100760.37;;;11.86;60.41
73518;BME280;61766;60.318;25.044;2023-05-17T07:11:01;100763.00;;;10.92;62.32
73518;BME280;61766;60.318;25.044;2023-05-17T07:13:27;100767.17;;;11.65;61.83
73518;BME280;61766;60.318;25.044;2023-05-17T07:15:52;100776.81;;;11.26;61.66
73518;BME280;61766;60.318;25.044;2023-05-17T07:18:17;100781.29;;;11.09;64.61
73518;BME280;61766;60.318;25.044;2023-05-17T07:20:42;100785.07;;;10.62;65.46
73518;BME280;61766;60.318;25.044;2023-05-17T07:23:07;100783.95;;;11.12;63.54
73518;BME280;61766;60.318;25.044;2023-05-17T07:25:32;100790.61;;;11.53;62.19
73518;BME280;61766;60.318;25.044;2023-05-17T07:27:59;100793.30;;;11.21;63.13
73518;BME280;61766;60.318;25.044;2023-05-17T07:30:23;100803.98;;;11.36;62.08
73518;BME280;61766;60.318;25.044;2023-05-17T07:32:48;100800.63;;;10.06;65.73
73518;BME280;61766;60.318;25.044;2023-05-17T07:35:13;100805.27;;;11.50;63.36
73518;BME280;61766;60.318;25.044;2023-05-17T07:37:39;100819.94;;;10.80;62.75
73518;BME280;61766;60.318;25.044;2023-05-17T07:40:05;100815.52;;;10.12;65.18
73518;BME280;61766;60.318;25.044;2023-05-17T07:42:31;100821.84;;;10.86;63.69
73518;BME280;61766;60.318;25.044;2023-05-17T07:44:55;100812.66;;;10.57;65.03
73518;BME280;61766;60.318;25.044;2023-05-17T07:47:21;100819.63;;;10.54;65.21
73518;BME280;61766;60.318;25.044;2023-05-17T07:49:46;100817.89;;;10.20;65.51
73518;BME280;61766;60.318;25.044;2023-05-17T07:52:11;100823.04;;;10.28;64.76
73518;BME280;61766;60.318;25.044;2023-05-17T07:54:36;100831.69;;;11.22;62.70
73518;BME280;61766;60.318;25.044;2023-05-17T07:57:01;100842.20;;;9.11;68.15
73518;BME280;61766;60.318;25.044;2023-05-17T07:59:26;100842.34;;;9.84;65.58
73518;BME280;61766;60.318;25.044;2023-05-17T08:01:53;100841.98;;;10.10;65.24
73518;BME280;61766;60.318;25.044;2023-05-17T08:04:17;100852.86;;;10.19;65.33
73518;BME280;61766;60.318;25.044;2023-05-17T08:06:42;100840.45;;;10.79;63.21
73518;BME280;61766;60.318;25.044;2023-05-17T08:09:08;100850.01;;;11.05;61.41
73518;BME280;61766;60.318;25.044;2023-05-17T08:11:33;100843.31;;;10.89;62.39
73518;BME280;61766;60.318;25.044;2023-05-17T08:13:58;100846.84;;;11.04;62.20
73518;BME280;61766;60.318;25.044;2023-05-17T08:16:24;100853.97;;;10.70;62.81
73518;BME280;61766;60.318;25.044;2023-05-17T08:18:49;100856.49;;;10.29;62.67
73518;BME280;61766;60.318;25.044;2023-05-17T08:21:15;100858.87;;;10.56;62.69
73518;BME280;61766;60.318;25.044;2023-05-17T08:23:40;100871.82;;;10.69;61.88
73518;BME280;61766;60.318;25.044;2023-05-17T08:26:05;100870.83;;;11.24;59.77
73518;BME280;61766;60.318;25.044;2023-05-17T08:28:30;100871.32;;;11.25;60.21
73518;BME280;61766;60.318;25.044;2023-05-17T08:30:57;100872.26;;;10.22;63.04
73518;BME280;61766;60.318;25.044;2023-05-17T08:33:21;100871.18;;;10.88;61.72
73518;BME280;61766;60.318;25.044;2023-05-17T08:35:47;100863.94;;;11.34;60.03
73518;BME280;61766;60.318;25.044;2023-05-17T08:38:12;100861.44;;;10.72;60.92
73518;BME280;61766;60.318;25.044;2023-05-17T08:40:38;100868.11;;;11.43;59.45
73518;BME280;61766;60.318;25.044;2023-05-17T08:43:03;100871.31;;;11.55;59.57
73518;BME280;61766;60.318;25.044;2023-05-17T08:45:30;100881.72;;;11.35;58.15
73518;BME280;61766;60.318;25.044;2023-05-17T08:47:54;100876.28;;;11.16;59.16
73518;BME280;61766;60.318;25.044;2023-05-17T08:50:19;100898.14;;;10.79;58.72
73518;BME280;61766;60.318;25.044;2023-05-17T08:52:45;100887.13;;;10.83;60.27
73518;BME280;61766;60.318;25.044;2023-05-17T08:55:11;100902.77;;;11.30;60.64
73518;BME280;61766;60.318;25.044;2023-05-17T08:57:37;100916.25;;;10.76;60.22
73518;BME280;61766;60.318;25.044;2023-05-17T09:00:02;100909.59;;;10.68;60.06
73518;BME280;61766;60.318;25.044;2023-05-17T09:02:28;100917.23;;;10.67;60.73
73518;BME280;61766;60.318;25.044;2023-05-17T09:04:53;100914.62;;;10.57;60.37
73518;BME280;61766;60.318;25.044;2023-05-17T09:07:19;100905.77;;;11.29;58.39
73518;BME280;61766;60.318;25.044;2023-05-17T09:09:43;100913.41;;;11.67;55.09
73518;BME280;61766;60.318;25.044;2023-05-17T09:12:08;100906.51;;;11.59;54.54
73518;BME280;61766;60.318;25.044;2023-05-17T09:14:34;100916.80;;;11.82;54.75
73518;BME280;61766;60.318;25.044;2023-05-17T09:17:00;100922.51;;;11.41;55.74
73518;BME280;61766;60.318;25.044;2023-05-17T09:19:25;100929.19;;;10.79;57.10
73518;BME280;61766;60.318;25.044;2023-05-17T09:21:50;100920.93;;;10.93;57.42
73518;BME280;61766;60.318;25.044;2023-05-17T09:24:18;100921.31;;;11.45;55.72
73518;BME280;61766;60.318;25.044;2023-05-17T09:26:43;100920.13;;;11.84;52.99
73518;BME280;61766;60.318;25.044;2023-05-17T09:29:08;100922.90;;;12.59;51.07
73518;BME280;61766;60.318;25.044;2023-05-17T09:31:33;100923.89;;;12.33;48.77
73518;BME280;61766;60.318;25.044;2023-05-17T09:33:58;100922.10;;;12.22;49.79
73518;BME280;61766;60.318;25.044;2023-05-17T09:36:24;100940.06;;;12.19;47.90
73518;BME280;61766;60.318;25.044;2023-05-17T09:38:52;100923.96;;;12.66;47.82
73518;BME280;61766;60.318;25.044;2023-05-17T09:41:16;100936.68;;;12.64;47.71
73518;BME280;61766;60.318;25.044;2023-05-17T09:43:41;100930.71;;;11.71;47.96
73518;BME280;61766;60.318;25.044;2023-05-17T09:46:06;100937.65;;;12.36;46.82
73518;BME280;61766;60.318;25.044;2023-05-17T09:48:33;100934.68;;;12.94;46.82
73518;BME280;61766;60.318;25.044;2023-05-17T09:50:59;100950.85;;;13.13;46.25
73518;BME280;61766;60.318;25.044;2023-05-17T09:53:24;100942.41;;;12.17;47.14
73518;BME280;61766;60.318;25.044;2023-05-17T09:55:51;100944.43;;;12.66;47.07
73518;BME280;61766;60.318;25.044;2023-05-17T09:58:15;100956.59;;;11.96;46.72
73518;BME280;61766;60.318;25.044;2023-05-17T10:00:42;100955.47;;;12.22;46.95
73518;BME280;61766;60.318;25.044;2023-05-17T10:03:07;100953.17;;;12.41;45.81
73518;BME280;61766;60.318;25.044;2023-05-17T10:05:32;100963.54;;;11.82;45.94
73518;BME280;61766;60.318;25.044;2023-05-17T10:07:58;100956.08;;;12.99;44.45
73518;BME280;61766;60.318;25.044;2023-05-17T10:10:25;100948.67;;;13.49;43.30
73518;BME280;61766;60.318;25.044;2023-05-17T10:12:50;100958.49;;;13.31;43.95
73518;BME280;61766;60.318;25.044;2023-05-17T10:15:16;100957.11;;;12.08;44.35
73518;BME280;61766;60.318;25.044;2023-05-17T10:17:41;100938.96;;;13.60;43.04
73518;BME280;61766;60.318;25.044;2023-05-17T10:20:08;100961.05;;;12.26;43.16
73518;BME280;61766;60.318;25.044;2023-05-17T10:22:32;100944.76;;;13.80;41.53
73518;BME280;61766;60.318;25.044;2023-05-17T10:24:58;100963.24;;;14.39;40.78
73518;BME280;61766;60.318;25.044;2023-05-17T10:27:24;100961.99;;;14.75;39.82
73518;BME280;61766;60.318;25.044;2023-05-17T10:29:51;100964.31;;;14.51;39.17
73518;BME280;61766;60.318;25.044;2023-05-17T10:32:17;100989.84;;;13.63;40.35
73518;BME280;61766;60.318;25.044;2023-05-17T10:34:42;100973.33;;;13.69;41.33
73518;BME280;61766;60.318;25.044;2023-05-17T10:37:07;100968.13;;;13.01;42.98
73518;BME280;61766;60.318;25.044;2023-05-17T10:39:33;100984.24;;;12.89;42.40
73518;BME280;61766;60.318;25.044;2023-05-17T10:42:00;100987.83;;;12.10;43.36
73518;BME280;61766;60.318;25.044;2023-05-17T10:44:24;100990.48;;;12.13;43.60
73518;BME280;61766;60.318;25.044;2023-05-17T10:46:51;100989.31;;;12.45;44.11
73518;BME280;61766;60.318;25.044;2023-05-17T10:49:16;100989.13;;;12.10;43.74
73518;BME280;61766;60.318;25.044;2023-05-17T10:51:42;100990.25;;;12.47;43.35
73518;BME280;61766;60.318;25.044;2023-05-17T10:54:09;100999.68;;;12.11;44.08
73518;BME280;61766;60.318;25.044;2023-05-17T10:56:34;101006.22;;;12.12;43.00
73518;BME280;61766;60.318;25.044;2023-05-17T11:03:54;101030.20;;;11.21;45.36
73518;BME280;61766;60.318;25.044;2023-05-17T11:06:17;101026.46;;;11.48;44.37
73518;BME280;61766;60.318;25.044;2023-05-17T11:08:43;101030.00;;;12.24;43.46
73518;BME280;61766;60.318;25.044;2023-05-17T11:11:09;101047.93;;;11.74;43.47
73518;BME280;61766;60.318;25.044;2023-05-17T11:13:35;101040.17;;;11.52;44.66
73518;BME280;61766;60.318;25.044;2023-05-17T11:16:03;101044.56;;;11.90;43.41
73518;BME280;61766;60.318;25.044;2023-05-17T11:18:25;101051.65;;;11.40;45.26
73518;BME280;61766;60.318;25.044;2023-05-17T11:23:17;101064.92;;;11.31;44.63
73518;BME280;61766;60.318;25.044;2023-05-17T11:25:43;101070.09;;;11.30;45.32
73518;BME280;61766;60.318;25.044;2023-05-17T11:28:16;101069.10;;;10.73;45.99
73518;BME280;61766;60.318;25.044;2023-05-17T11:30:39;101058.16;;;11.85;45.52
73518;BME280;61766;60.318;25.044;2023-05-17T11:33:02;101062.63;;;12.73;44.66
73518;BME280;61766;60.318;25.044;2023-05-17T11:35:27;101051.13;;;12.72;42.80
73518;BME280;61766;60.318;25.044;2023-05-17T11:37:52;101067.52;;;12.90;42.19
73518;BME280;61766;60.318;25.044;2023-05-17T11:40:24;101054.43;;;11.89;43.50
73518;BME280;61766;60.318;25.044;2023-05-17T11:42:43;101054.71;;;12.45;43.17
73518;BME280;61766;60.318;25.044;2023-05-17T11:45:09;101058.71;;;12.04;43.08
73518;BME280;61766;60.318;25.044;2023-05-17T11:47:38;101076.76;;;12.00;41.79
73518;BME280;61766;60.318;25.044;2023-05-17T11:50:02;101062.73;;;12.42;41.87
73518;BME280;61766;60.318;25.044;2023-05-17T11:52:27;101077.82;;;12.35;42.37
73518;BME280;61766;60.318;25.044;2023-05-17T11:54:53;101061.79;;;11.42;43.83
73518;BME280;61766;60.318;25.044;2023-05-17T11:57:20;101066.38;;;11.73;43.40
73518;BME280;61766;60.318;25.044;2023-05-17T11:59:44;101074.68;;;11.71;43.91
73518;BME280;61766;60.318;25.044;2023-05-17T12:02:10;101107.81;;;11.33;43.83
73518;BME280;61766;60.318;25.044;2023-05-17T12:04:37;101082.85;;;10.86;45.87
73518;BME280;61766;60.318;25.044;2023-05-17T12:07:01;101087.54;;;10.80;46.12
73518;BME280;61766;60.318;25.044;2023-05-17T12:09:26;101091.58;;;11.40;44.73
73518;BME280;61766;60.318;25.044;2023-05-17T12:11:52;101077.55;;;11.64;44.57
73518;BME280;61766;60.318;25.044;2023-05-17T12:14:18;101073.32;;;12.48;43.26
73518;BME280;61766;60.318;25.044;2023-05-17T12:16:44;101072.71;;;12.51;42.26
73518;BME280;61766;60.318;25.044;2023-05-17T12:19:17;101065.87;;;12.90;42.44
73518;BME280;61766;60.318;25.044;2023-05-17T12:21:35;101062.37;;;12.44;43.09
73518;BME280;61766;60.318;25.044;2023-05-17T12:24:01;101065.94;;;11.99;43.25
73518;BME280;61766;60.318;25.044;2023-05-17T12:26:27;101064.35;;;12.49;42.42
73518;BME280;61766;60.318;25.044;2023-05-17T12:28:54;101056.49;;;12.28;42.70
73518;BME280;61766;60.318;25.044;2023-05-17T12:31:20;101061.24;;;12.44;42.51
73518;BME280;61766;60.318;25.044;2023-05-17T12:33:45;101074.90;;;11.72;44.32
73518;BME280;61766;60.318;25.044;2023-05-17T12:36:11;101070.69;;;11.19;45.91
73518;BME280;61766;60.318;25.044;2023-05-17T12:38:38;101076.45;;;10.92;46.75